Weather History for Willmar, MN

Change the Weather History Date:

Thursday, March 13, 2014

  Actual Average (KLJF) Record (KLJF)
Temperature  
Mean Temperature 42 °F -  
Max Temperature 55 °F 36 °F 68 °F (1990)
Min Temperature 28 °F 20 °F -15 °F (1993)
Degree Days  
Heating Degree Days 24    
Moisture  
Dew Point 34 °F    
Average Humidity 77    
Maximum Humidity 93    
Minimum Humidity 58    
Precipitation  
Precipitation 0.00 in - - ()
Sea Level Pressure  
Sea Level Pressure 29.73 in    
Wind  
Wind Speed 8 mph (SW)    
Max Wind Speed 18 mph    
Max Gust Speed 26 mph    
Visibility 10 miles    
Events      
Averages and records for this station are not official NWS values.
T = Trace of Precipitation, MM = Missing Value Source: NWS Daily Summary

Daily Weather History Graph

Daily Weather History Graph

Search for Another Location

Airport:

Trip Planner

Search our weather history database for the weather conditions in past years. The results will help you decide how hot, cold, wet, or windy it might be!

Date:

Astronomy

Mar. 13, 2014 Rise Set
Actual Time 7:36 AM CDT 7:23 PM CDT
Civil Twilight 7:07 AM CDT 7:53 PM CDT
Nautical Twilight 6:33 AM CDT 8:27 PM CDT
Astronomical Twilight 5:58 AM CDT 9:02 PM CDT
Moon 4:45 PM CDT (3/13) 5:50 AM CDT (3/13)
Length of Visible Light 12h 45m
Length of Day
11h 47m
Waxing Gibbous, 91% of the Moon is Illuminated
Mar 13
Waxing Gibbous
Mar 16
Full
Mar 23
Last Quarter
Mar 30
New
Apr 7
First Quarter

Hourly Weather History & Observations

Time (CDT) Temp. Windchill Dew Point Humidity Pressure Visibility Wind Dir Wind Speed Gust Speed Precip Events Conditions
12:15 AM 30.2 °F 22.6 °F 24.8 °F 80% 29.96 in 10.0 mi SSE 8.1 mph - N/A   Overcast
12:35 AM 30.2 °F 23.4 °F 24.8 °F 80% 29.96 in 10.0 mi South 6.9 mph - N/A   Overcast
12:55 AM 30.2 °F 23.4 °F 24.8 °F 80% 29.95 in 10.0 mi SSE 6.9 mph - N/A   Overcast
1:15 AM 30.2 °F 21.9 °F 24.8 °F 80% 29.94 in 10.0 mi SSE 9.2 mph - N/A   Overcast
1:35 AM 30.2 °F 20.8 °F 26.6 °F 86% 29.93 in 10.0 mi SSE 11.5 mph - N/A   Overcast
1:56 AM 30.2 °F 21.3 °F 26.6 °F 86% 29.92 in 10.0 mi SSE 10.4 mph - N/A   Mostly Cloudy
2:15 AM 30.2 °F 21.3 °F 26.6 °F 86% 29.91 in 10.0 mi SSE 10.4 mph - N/A   Scattered Clouds
2:36 AM 30.2 °F 21.3 °F 26.6 °F 86% 29.90 in 10.0 mi SSE 10.4 mph - N/A   Clear
2:55 AM 30.2 °F 21.9 °F 26.6 °F 86% 29.90 in 10.0 mi SSE 9.2 mph - N/A   Clear
3:16 AM 28.4 °F 20.4 °F 26.6 °F 93% 29.89 in 10.0 mi SSE 8.1 mph - N/A   Clear
3:35 AM 28.4 °F 23.3 °F 26.6 °F 93% 29.87 in 10.0 mi South 4.6 mph - N/A   Clear
3:56 AM 30.2 °F 26.7 °F 26.6 °F 86% 29.86 in 10.0 mi SSE 3.5 mph - N/A   Clear
4:15 AM 30.2 °F 24.3 °F 26.6 °F 86% 29.85 in 10.0 mi SSE 5.8 mph - N/A   Clear
4:36 AM 30.2 °F - 26.6 °F 86% 29.85 in 7.0 mi Calm Calm - N/A   Clear
4:55 AM 30.2 °F - 28.4 °F 93% 29.85 in 7.0 mi Calm Calm - N/A   Clear
5:16 AM 28.4 °F 24.6 °F 26.6 °F 93% 29.84 in 7.0 mi South 3.5 mph - N/A   Clear
5:35 AM 30.2 °F - 28.4 °F 93% 29.84 in 7.0 mi Calm Calm - N/A   Clear
5:56 AM 30.2 °F - 26.6 °F 86% 29.83 in 7.0 mi Calm Calm - N/A   Clear
6:15 AM 30.2 °F - 26.6 °F 86% 29.83 in 7.0 mi Calm Calm - N/A   Clear
6:35 AM 28.4 °F - 26.6 °F 93% 29.82 in 7.0 mi Calm Calm - N/A   Clear
6:55 AM 28.4 °F 23.3 °F 26.6 °F 93% 29.83 in 7.0 mi SW 4.6 mph - N/A   Clear
7:15 AM 28.4 °F 23.3 °F 26.6 °F 93% 29.82 in 7.0 mi SW 4.6 mph - N/A   Clear
7:35 AM 30.2 °F 25.4 °F 28.4 °F 93% 29.82 in 7.0 mi SW 4.6 mph - N/A   Clear
7:55 AM 30.2 °F 26.7 °F 26.6 °F 86% 29.81 in 7.0 mi SW 3.5 mph - N/A   Clear
8:15 AM 30.2 °F 25.4 °F 28.4 °F 93% 29.81 in 7.0 mi SW 4.6 mph - N/A   Clear
8:35 AM 30.2 °F 26.7 °F 28.4 °F 93% 29.81 in 10.0 mi WSW 3.5 mph - N/A   Clear
8:55 AM 33.8 °F 29.6 °F 30.2 °F 87% 29.80 in 10.0 mi WSW 4.6 mph - N/A   Clear
9:16 AM 35.6 °F 28.6 °F 30.2 °F 81% 29.80 in 10.0 mi WSW 9.2 mph - N/A   Clear
9:35 AM 35.6 °F 28.6 °F 30.2 °F 81% 29.80 in 10.0 mi WSW 9.2 mph - N/A   Clear
9:55 AM 37.4 °F 31.4 °F 32.0 °F 81% 29.79 in 10.0 mi WSW 8.1 mph - N/A   Clear
10:15 AM 37.4 °F 30.3 °F 33.8 °F 87% 29.79 in 10.0 mi West 10.4 mph - N/A   Clear
10:36 AM 39.2 °F 33.0 °F 33.8 °F 81% 29.78 in 10.0 mi WSW 9.2 mph - N/A   Clear
10:56 AM 41.0 °F 34.7 °F 33.8 °F 76% 29.78 in - West 10.4 mph - N/A   Unknown
11:15 AM 41.0 °F 35.2 °F 33.8 °F 76% 29.77 in 10.0 mi WSW 9.2 mph - N/A   Clear
11:36 AM 42.8 °F 36.6 °F 35.6 °F 76% 29.76 in 10.0 mi WSW 11.5 mph - N/A   Clear
11:55 AM 44.6 °F 38.8 °F 35.6 °F 71% 29.76 in 10.0 mi SW 11.5 mph - N/A   Clear
12:16 PM 44.6 °F 38.4 °F 35.6 °F 71% 29.74 in 10.0 mi SW 12.7 mph - N/A   Clear
12:35 PM 46.4 °F 41.1 °F 37.4 °F 71% 29.73 in 10.0 mi SW 11.5 mph - N/A   Clear
12:55 PM 48.2 °F - 39.2 °F 71% 29.73 in 10.0 mi SW 11.5 mph - N/A   Clear
1:16 PM 50.0 °F - 39.2 °F 66% 29.72 in 10.0 mi SSW 9.2 mph - N/A   Clear
1:35 PM 51.8 °F - 39.2 °F 62% 29.71 in 10.0 mi SSW 9.2 mph - N/A   Clear
1:56 PM 53.6 °F - 41.0 °F 62% 29.70 in 10.0 mi SW 12.7 mph - N/A   Clear
2:15 PM 53.6 °F - 42.8 °F 67% 29.69 in 10.0 mi SW 16.1 mph 19.6 mph N/A   Clear
2:35 PM 53.6 °F - 41.0 °F 62% 29.68 in 10.0 mi SW 16.1 mph - N/A   Unknown
2:56 PM 53.6 °F - 41.0 °F 62% 29.67 in 10.0 mi SW 17.3 mph 20.7 mph N/A   Unknown
3:15 PM 55.4 °F - 41.0 °F 58% 29.66 in 10.0 mi SW 18.4 mph - N/A   Unknown
3:36 PM 55.4 °F - 41.0 °F 58% 29.64 in 10.0 mi SW 18.4 mph 23.0 mph N/A   Unknown
3:56 PM 55.4 °F - 42.8 °F 63% 29.64 in 10.0 mi SW 18.4 mph 24.2 mph N/A   Unknown
4:15 PM 55.4 °F - 42.8 °F 63% 29.63 in 10.0 mi SW 18.4 mph 26.5 mph N/A   Unknown
4:36 PM 55.4 °F - 41.0 °F 58% 29.63 in 10.0 mi SW 17.3 mph - N/A   Unknown
4:56 PM 55.4 °F - 42.8 °F 63% 29.62 in 10.0 mi SW 17.3 mph 21.9 mph N/A   Unknown
5:15 PM 55.4 °F - 42.8 °F 63% 29.61 in 10.0 mi SW 15.0 mph - N/A   Unknown
5:36 PM 55.4 °F - 42.8 °F 63% 29.61 in 10.0 mi SW 12.7 mph - N/A   Unknown
5:56 PM 55.4 °F - 42.8 °F 63% 29.60 in 10.0 mi SW 12.7 mph - N/A   Unknown
6:15 PM 53.6 °F - 42.8 °F 67% 29.59 in 10.0 mi SW 10.4 mph - N/A   Unknown
6:35 PM 51.8 °F - 42.8 °F 71% 29.59 in 10.0 mi SW 11.5 mph - N/A   Unknown
6:56 PM 51.8 °F - 39.2 °F 62% 29.58 in 10.0 mi SW 12.7 mph - N/A   Clear
7:15 PM 50.0 °F - 39.2 °F 66% 29.58 in 10.0 mi SSW 5.8 mph - N/A   Clear
7:35 PM 48.2 °F - 39.2 °F 71% 29.58 in 10.0 mi SSW 6.9 mph - N/A   Clear
7:55 PM 48.2 °F - 39.2 °F 71% 29.58 in 10.0 mi SSW 6.9 mph - N/A   Clear
8:15 PM 46.4 °F 45.2 °F 39.2 °F 76% 29.58 in 10.0 mi SSW 3.5 mph - N/A   Clear
8:36 PM 46.4 °F 44.3 °F 37.4 °F 71% 29.57 in 10.0 mi SSW 4.6 mph - N/A   Clear
8:55 PM 46.4 °F 42.4 °F 39.2 °F 76% 29.57 in 10.0 mi SSW 8.1 mph - N/A   Clear
9:15 PM 46.4 °F 41.5 °F 37.4 °F 71% 29.56 in 10.0 mi SW 10.4 mph - N/A   Clear
9:35 PM 46.4 °F 41.5 °F 37.4 °F 71% 29.55 in 10.0 mi SW 10.4 mph - N/A   Clear
9:56 PM 44.6 °F 39.7 °F 37.4 °F 76% 29.55 in 10.0 mi SW 9.2 mph - N/A   Clear
10:15 PM 42.8 °F 37.5 °F 35.6 °F 76% 29.55 in 10.0 mi SW 9.2 mph - N/A   Clear
10:36 PM 41.0 °F 35.2 °F 35.6 °F 81% 29.55 in 10.0 mi WSW 9.2 mph - N/A   Clear
10:55 PM 41.0 °F 34.7 °F 35.6 °F 81% 29.55 in 10.0 mi West 10.4 mph - N/A   Clear
11:16 PM 44.6 °F 37.2 °F 35.6 °F 71% 29.56 in 10.0 mi West 17.3 mph - N/A   Clear
11:35 PM 44.6 °F 38.1 °F 33.8 °F 66% 29.56 in 10.0 mi WNW 13.8 mph - N/A   Clear
11:56 PM 44.6 °F 38.1 °F 33.8 °F 66% 29.56 in 10.0 mi NW 13.8 mph - N/A   Clear